Drake Field Fayetteville US
ICAO: KFYV
IATA: FYV
Category: Medium
Scheduled Services: No

Elevation: 1251 ft
TransAlt. 18000 ft.

Airport Communications:
RAZORBACK APP/DEP:121
ATIS:133.1
CTAF:128
GND:121.8
JONESBORO RDO:122.3
TWR:128
UNICOM:122.95

KFYV Zoom In..

Runways:

(A) RW 16 length 6005 ft width 100 ft
LOC 111.90 / hdg 164

(B) RW 34 length 6005 ft width 100 ft
LOC 111.90 / hdg 344

Location; KFYV
Day. 22 / Time. 04.35 Zulu
* Altimeter: 29.64
* Temperature: 12° c. 53.6°f.
* Wind from: 230° Speed 07 kn with Gusts up to 15 kn.
Dewpoint: 11° c.
Visibility: 5 Statute Miles.
Clouds: Scattered 3200 ft.
Clouds: Broken 5500 ft.
Clouds: Overcast 7500 ft.
Conditions: Rain.Conditions: Mist.

KFYV 220435Z AUTO 23007G15KT 5SM RA BR SCT032 BKN055 OVC075 12/11 A2964 RMK AO2 PK WND 25039/0405 WSHFT 0355 LTG DSNT E-SW RAE0354B06 P0033 T01220111


Wind From 230°
Speed 07 kn.

jpsM music video
CHECK IT OUT

jpsM - It Moves..

 
jpsmedia.com for Web Design  worldairports.se 2018   terms of use